Time;durP1;ratioP1;P1;durP2;ratioP2;P2;SDS_P1;SDS_P2;PMS_P1;PMS_P2;Temp;Humidity;BMP_temperature;BMP_pressure;BME280_temperature;BME280_humidity;BME280_pressure;Samples;Min_cycle;Max_cycle;Signal;HPM_P1;HPM_P2
2022/01/21 00:00:28;;;;;;;5.85;4.68;;;19.20;44.60;;;;;;6169572;28;20122;-69
2022/01/21 00:03:29;;;;;;;6.63;4.65;;;19.20;44.60;;;;;;6170516;28;20031;-69
2022/01/21 00:06:30;;;;;;;5.38;4.03;;;19.20;44.60;;;;;;6172548;28;20100;-68
2022/01/21 00:09:31;;;;;;;5.97;4.28;;;19.20;44.60;;;;;;6193507;28;20060;-69
2022/01/21 00:12:33;;;;;;;5.45;3.97;;;19.20;44.60;;;;;;6195871;28;20381;-69
2022/01/21 00:15:33;;;;;;;4.85;3.90;;;19.20;44.60;;;;;;6194057;28;20050;-69
2022/01/21 00:18:36;;;;;;;4.90;4.10;;;19.20;44.60;;;;;;6193465;28;20062;-69
2022/01/21 00:31:35;;;;;;;6.90;4.38;;;19.10;44.60;;;;;;6193339;28;20481;-69
2022/01/21 00:34:36;;;;;;;4.85;3.65;;;19.20;44.70;;;;;;6193022;28;20088;-69
2022/01/21 00:37:37;;;;;;;4.70;3.92;;;19.10;44.60;;;;;;6193548;28;20542;-69
2022/01/21 00:40:38;;;;;;;4.63;3.38;;;19.20;44.70;;;;;;6193068;28;20022;-69
2022/01/21 00:43:44;;;;;;;5.68;3.60;;;19.10;44.60;;;;;;6193156;28;20049;-69
2022/01/21 00:46:45;;;;;;;4.35;3.08;;;19.10;44.60;;;;;;6195833;28;20609;-69
2022/01/21 00:49:45;;;;;;;4.78;3.50;;;19.10;44.60;;;;;;6197419;28;20038;-68
2022/01/21 00:52:46;;;;;;;4.43;3.22;;;19.10;44.60;;;;;;6188613;28;20106;-69
2022/01/21 00:55:47;;;;;;;4.85;3.67;;;19.10;44.60;;;;;;6173356;28;20030;-69
2022/01/21 00:58:47;;;;;;;5.57;3.50;;;19.10;44.60;;;;;;6175175;28;20062;-69
2022/01/21 01:01:48;;;;;;;4.32;3.40;;;19.10;44.60;;;;;;6197275;28;20497;-68
2022/01/21 01:04:49;;;;;;;3.03;2.63;;;19.10;44.60;;;;;;6197077;28;20540;-69
2022/01/21 01:07:49;;;;;;;4.30;2.95;;;19.10;44.60;;;;;;6196733;28;20129;-68
2022/01/21 01:20:32;;;;;;;3.53;2.83;;;19.10;44.70;;;;;;6196850;28;20113;-69
2022/01/21 01:24:00;;;;;;;3.38;2.92;;;19.10;44.70;;;;;;6196908;28;20041;-69
2022/01/21 01:30:20;;;;;;;3.95;2.75;;;19.10;44.60;;;;;;6196642;28;20489;-69
2022/01/21 01:33:24;;;;;;;3.50;2.78;;;19.10;44.70;;;;;;6197101;28;20031;-69
2022/01/21 01:36:25;;;;;;;4.57;3.05;;;19.10;44.70;;;;;;6196578;28;20023;-69
2022/01/21 01:39:43;;;;;;;3.20;2.50;;;19.10;44.60;;;;;;6201715;28;20108;-69
2022/01/21 01:49:38;;;;;;;3.58;2.47;;;19.10;44.70;;;;;;6195721;28;20038;-69
2022/01/21 01:52:39;;;;;;;4.15;3.00;;;19.10;44.70;;;;;;6188371;28;20039;-69
2022/01/21 01:55:40;;;;;;;3.88;2.70;;;19.10;44.70;;;;;;6171928;28;20078;-69
2022/01/21 01:58:43;;;;;;;3.15;2.22;;;19.10;44.80;;;;;;6170719;28;20030;-69
2022/01/21 02:01:50;;;;;;;3.28;2.40;;;19.10;44.70;;;;;;6171376;28;20528;-69
2022/01/21 02:04:51;;;;;;;4.60;2.60;;;19.10;44.80;;;;;;6171914;28;20169;-69
2022/01/21 02:07:52;;;;;;;3.78;2.70;;;19.10;44.70;;;;;;6171363;28;20035;-69
2022/01/21 02:10:52;;;;;;;3.10;2.33;;;19.10;44.70;;;;;;6171416;28;20059;-69
2022/01/21 02:13:58;;;;;;;4.10;2.55;;;19.10;44.80;;;;;;6171271;28;20441;-69
2022/01/21 02:23:19;;;;;;;3.42;2.70;;;19.10;44.80;;;;;;6184851;28;20034;-69
2022/01/21 02:26:20;;;;;;;2.78;2.40;;;19.10;44.80;;;;;;6194890;28;20034;-68
2022/01/21 02:29:29;;;;;;;2.90;2.20;;;19.10;44.90;;;;;;6194963;28;20061;-69
2022/01/21 02:32:30;;;;;;;3.05;2.28;;;19.10;44.80;;;;;;6194789;28;20038;-69
2022/01/21 02:35:31;;;;;;;3.20;2.40;;;19.10;44.80;;;;;;6195149;28;20054;-68
2022/01/21 02:38:31;;;;;;;2.63;2.10;;;19.10;44.80;;;;;;6195006;28;20033;-68
2022/01/21 02:41:32;;;;;;;2.75;2.35;;;19.10;44.90;;;;;;6195205;28;20029;-69
2022/01/21 02:44:33;;;;;;;2.60;2.20;;;19.10;44.80;;;;;;6195164;28;20026;-69
2022/01/21 02:47:33;;;;;;;2.50;2.00;;;19.10;44.90;;;;;;6194282;28;20081;-68
2022/01/21 02:50:34;;;;;;;3.08;2.17;;;19.10;44.90;;;;;;6195291;28;20023;-69
2022/01/21 02:54:03;;;;;;;2.30;2.00;;;19.10;44.90;;;;;;6179179;28;20302;-68
2022/01/21 02:57:01;;;;;;;2.75;2.20;;;19.00;44.90;;;;;;6170654;28;20034;-69
2022/01/21 03:00:03;;;;;;;2.95;2.08;;;19.00;44.90;;;;;;6170117;28;20106;-69
2022/01/21 03:03:04;;;;;;;2.22;2.00;;;19.10;44.90;;;;;;6170511;28;20019;-69
2022/01/21 03:06:05;;;;;;;2.88;2.10;;;19.00;44.90;;;;;;6170512;28;20527;-68
2022/01/21 03:09:07;;;;;;;3.45;2.10;;;19.10;45.00;;;;;;6170196;28;20053;-68
2022/01/21 03:12:08;;;;;;;2.65;1.92;;;19.10;45.00;;;;;;6170002;28;20035;-69
2022/01/21 03:15:09;;;;;;;2.17;1.83;;;19.00;44.90;;;;;;6170627;28;20400;-68
2022/01/21 03:18:09;;;;;;;3.00;2.03;;;19.10;44.90;;;;;;6170057;28;20038;-69
2022/01/21 03:21:15;;;;;;;2.50;2.03;;;19.10;45.00;;;;;;6193330;28;20045;-68
2022/01/21 03:24:16;;;;;;;2.78;1.90;;;19.00;44.90;;;;;;6194636;28;20093;-68
2022/01/21 03:27:16;;;;;;;2.63;1.85;;;19.00;45.00;;;;;;6193853;28;20034;-69
2022/01/21 03:30:17;;;;;;;2.92;2.05;;;19.10;45.00;;;;;;6194180;28;20038;-69
2022/01/21 03:33:18;;;;;;;2.70;2.00;;;19.00;45.00;;;;;;6193221;28;20485;-69
2022/01/21 03:36:19;;;;;;;3.38;1.90;;;19.00;45.60;;;;;;6194212;28;20113;-69
2022/01/21 03:39:20;;;;;;;2.33;1.85;;;19.00;45.00;;;;;;6193979;28;20101;-69
2022/01/21 03:42:21;;;;;;;2.15;1.58;;;19.10;45.00;;;;;;6194072;28;20026;-68
2022/01/21 03:45:21;;;;;;;3.03;1.90;;;19.00;45.00;;;;;;6193630;28;20400;-68
2022/01/21 03:48:22;;;;;;;2.50;1.65;;;19.00;45.00;;;;;;6193713;28;20306;-69
2022/01/21 03:51:23;;;;;;;2.38;1.55;;;19.00;44.90;;;;;;6193554;28;20026;-69
2022/01/21 03:54:23;;;;;;;2.10;1.80;;;19.00;45.00;;;;;;6171560;28;20494;-69
2022/01/21 03:57:24;;;;;;;3.35;1.90;;;19.00;45.00;;;;;;6169285;28;20033;-69
2022/01/21 04:00:47;;;;;;;3.00;1.73;;;19.00;45.00;;;;;;6170309;28;20088;-69
2022/01/21 04:03:48;;;;;;;2.35;1.85;;;19.00;45.00;;;;;;6170014;28;20030;-69
2022/01/21 04:06:48;;;;;;;1.95;1.60;;;19.00;45.10;;;;;;6189378;28;20497;-69
2022/01/21 04:09:49;;;;;;;1.80;1.25;;;19.00;45.00;;;;;;6193019;28;20065;-68
2022/01/21 04:12:50;;;;;;;2.35;1.77;;;19.00;45.00;;;;;;6193387;28;20015;-68
2022/01/21 04:15:52;;;;;;;2.65;1.92;;;19.00;45.10;;;;;;6193722;28;20134;-69
2022/01/21 04:18:53;;;;;;;3.00;1.48;;;19.00;45.10;;;;;;6193223;28;20045;-69
2022/01/21 04:21:53;;;;;;;2.10;1.50;;;19.00;45.10;;;;;;6196509;28;20385;-68
2022/01/21 04:24:54;;;;;;;1.92;1.73;;;19.00;45.10;;;;;;6198040;28;20026;-69
2022/01/21 04:27:55;;;;;;;2.22;1.58;;;19.00;45.10;;;;;;6198555;28;20030;-69
2022/01/21 04:30:57;;;;;;;2.35;1.65;;;19.00;45.10;;;;;;6198240;28;20038;-69
2022/01/21 04:33:57;;;;;;;2.38;1.40;;;19.00;45.10;;;;;;6198357;28;20022;-69
2022/01/21 04:36:59;;;;;;;2.00;1.60;;;19.00;45.10;;;;;;6197829;28;20400;-69
2022/01/21 04:40:07;;;;;;;1.90;1.50;;;19.00;45.10;;;;;;6196395;28;20049;-68
2022/01/21 04:49:47;;;;;;;1.50;1.30;;;19.00;45.20;;;;;;6197261;28;20038;-69
2022/01/21 04:52:47;;;;;;;2.20;1.30;;;19.00;45.10;;;;;;6188407;28;20107;-68
2022/01/21 04:55:48;;;;;;;3.60;1.85;;;19.00;45.10;;;;;;6173592;28;20034;-68
2022/01/21 04:58:49;;;;;;;1.92;1.30;;;19.00;45.20;;;;;;6173215;28;20065;-69
2022/01/21 05:01:50;;;;;;;1.38;1.17;;;19.00;45.10;;;;;;6173165;28;20027;-68
2022/01/21 05:04:50;;;;;;;2.10;1.20;;;19.00;45.20;;;;;;6173643;28;20140;-69
2022/01/21 05:07:51;;;;;;;2.03;1.20;;;19.00;45.20;;;;;;6173082;28;20567;-69
2022/01/21 05:10:52;;;;;;;2.00;1.23;;;19.00;45.10;;;;;;6172812;28;20042;-69
2022/01/21 05:13:58;;;;;;;1.85;1.40;;;19.00;45.20;;;;;;6172609;28;20094;-68
2022/01/21 05:17:05;;;;;;;1.65;1.40;;;19.00;45.10;;;;;;6173258;28;20109;-69
2022/01/21 05:20:06;;;;;;;2.80;1.40;;;19.00;45.20;;;;;;6172288;28;20022;-69
2022/01/21 05:23:06;;;;;;;1.60;1.30;;;19.00;45.10;;;;;;6172794;28;20077;-69
2022/01/21 05:26:06;;;;;;;2.00;1.20;;;19.00;45.10;;;;;;6174014;28;20038;-69
2022/01/21 05:29:10;;;;;;;1.70;1.35;;;19.00;45.00;;;;;;6196868;28;20034;-69
2022/01/21 05:32:10;;;;;;;1.67;1.00;;;19.00;45.00;;;;;;6195147;28;20030;-68
2022/01/21 05:35:12;;;;;;;2.25;1.20;;;19.00;45.00;;;;;;6196423;28;20045;-69
2022/01/21 05:38:12;;;;;;;1.92;1.23;;;19.00;44.90;;;;;;6196152;28;20638;-69
2022/01/21 05:41:14;;;;;;;2.25;1.40;;;19.00;44.90;;;;;;6195544;28;20102;-69
2022/01/21 05:46:23;;;;;;;1.30;1.20;;;19.00;44.90;;;;;;6196195;28;20029;-69
2022/01/21 05:47:39;;;;;;;2.22;1.40;;;19.10;45.00;;;;;;6195832;28;20038;-69
2022/01/21 05:50:39;;;;;;;1.50;1.08;;;19.10;44.90;;;;;;6195906;28;20042;-69
2022/01/21 05:53:40;;;;;;;1.55;1.20;;;19.10;44.90;;;;;;6180209;28;20650;-68
2022/01/21 05:56:41;;;;;;;1.55;1.13;;;19.10;44.90;;;;;;6171971;28;20390;-69
2022/01/21 05:59:42;;;;;;;2.15;1.20;;;19.10;44.90;;;;;;6171675;28;20490;-69
2022/01/21 06:02:42;;;;;;;1.67;1.10;;;19.10;44.90;;;;;;6172099;28;20039;-69
2022/01/21 06:05:43;;;;;;;1.95;1.20;;;19.10;44.90;;;;;;6171605;28;20037;-69
2022/01/21 06:08:44;;;;;;;1.85;1.30;;;19.10;44.80;;;;;;6171644;28;20054;-69
2022/01/21 06:11:44;;;;;;;1.60;1.10;;;19.10;44.80;;;;;;6171083;28;20062;-69
2022/01/21 06:14:44;;;;;;;1.30;1.00;;;19.10;44.80;;;;;;6171883;28;20165;-69
2022/01/21 06:17:45;;;;;;;1.38;1.20;;;19.10;44.90;;;;;;6171270;28;20026;-69
2022/01/21 06:20:45;;;;;;;0.95;0.88;;;19.10;44.90;;;;;;6173577;28;20027;-68
2022/01/21 06:23:46;;;;;;;2.22;1.00;;;19.10;44.90;;;;;;6171118;28;20437;-68
2022/01/21 06:26:47;;;;;;;1.67;1.10;;;19.10;45.00;;;;;;6178501;28;20030;-68
2022/01/21 06:29:47;;;;;;;1.33;1.10;;;19.20;45.30;;;;;;6195128;28;20034;-69
2022/01/21 06:32:48;;;;;;;1.27;1.05;;;19.10;45.20;;;;;;6194740;28;20905;-69
2022/01/21 06:35:49;;;;;;;1.25;0.90;;;19.20;45.30;;;;;;6195420;28;20037;-69
2022/01/21 06:38:50;;;;;;;1.25;0.90;;;19.10;45.90;;;;;;6194802;28;20088;-68
2022/01/21 06:41:51;;;;;;;1.83;1.15;;;19.10;45.30;;;;;;6194869;28;20019;-69
2022/01/21 06:44:52;;;;;;;2.20;1.30;;;19.10;45.40;;;;;;6194698;28;20390;-69
2022/01/21 06:47:52;;;;;;;1.45;1.10;;;19.10;45.40;;;;;;6194886;28;20026;-69
2022/01/21 06:50:53;;;;;;;1.25;0.98;;;19.10;45.40;;;;;;6194335;28;20473;-69
2022/01/21 06:53:54;;;;;;;1.73;0.90;;;19.10;45.40;;;;;;6176741;28;20029;-69
2022/01/21 06:56:55;;;;;;;1.88;1.08;;;19.20;45.60;;;;;;6170933;28;20055;-69
2022/01/21 06:59:55;;;;;;;2.10;1.40;;;19.20;45.60;;;;;;6173059;28;20027;-69
2022/01/21 07:02:56;;;;;;;2.90;1.30;;;19.20;45.60;;;;;;6197277;28;20030;-68
2022/01/21 07:05:57;;;;;;;1.77;1.02;;;19.20;45.70;;;;;;6195558;28;20026;-69
2022/01/21 07:08:57;;;;;;;2.22;1.20;;;19.20;45.70;;;;;;6196740;28;20089;-69
2022/01/21 07:11:58;;;;;;;1.58;1.23;;;19.20;45.70;;;;;;6196246;28;20105;-69
2022/01/21 07:14:58;;;;;;;1.92;1.10;;;19.20;45.80;;;;;;6196893;28;20030;-69
2022/01/21 07:17:59;;;;;;;1.30;1.08;;;19.20;45.80;;;;;;6196341;28;20049;-69
2022/01/21 07:21:00;;;;;;;1.80;1.10;;;19.20;45.80;;;;;;6194620;28;20038;-69
2022/01/21 07:24:00;;;;;;;1.38;0.88;;;19.20;45.80;;;;;;6196357;28;20030;-68
2022/01/21 07:27:01;;;;;;;1.80;0.98;;;19.20;45.80;;;;;;6196270;28;20030;-70
2022/01/21 07:30:04;;;;;;;1.50;1.02;;;19.20;45.80;;;;;;6196000;28;20045;-69
2022/01/21 07:33:04;;;;;;;2.20;1.17;;;19.20;45.80;;;;;;6195828;28;20061;-69
2022/01/21 07:36:06;;;;;;;1.33;1.00;;;19.20;45.90;;;;;;6196229;28;20420;-69
2022/01/21 07:39:07;;;;;;;1.30;0.90;;;19.20;45.80;;;;;;6195683;28;20034;-68
2022/01/21 07:42:07;;;;;;;1.85;1.27;;;19.20;45.90;;;;;;6195863;28;20494;-69
2022/01/21 07:45:08;;;;;;;1.92;1.15;;;19.20;45.90;;;;;;6195966;28;20054;-68
2022/01/21 07:48:09;;;;;;;2.17;1.00;;;19.20;45.90;;;;;;6196024;28;20057;-68
2022/01/21 07:51:09;;;;;;;2.40;1.20;;;19.20;45.90;;;;;;6195532;28;20023;-68
2022/01/21 07:54:11;;;;;;;2.58;1.05;;;19.20;45.90;;;;;;6195805;28;20102;-68
2022/01/21 07:57:12;;;;;;;1.10;0.82;;;19.20;45.90;;;;;;6194892;28;20505;-69
2022/01/21 08:00:13;;;;;;;2.47;1.17;;;19.20;45.90;;;;;;6195710;28;20035;-69
2022/01/21 08:03:15;;;;;;;1.80;1.23;;;19.20;45.90;;;;;;6195832;28;20028;-69
2022/01/21 08:06:15;;;;;;;1.60;0.90;;;19.20;45.90;;;;;;6195197;28;20033;-69
2022/01/21 08:09:16;;;;;;;2.22;0.90;;;19.20;45.90;;;;;;6195291;28;20059;-69
2022/01/21 08:12:18;;;;;;;1.35;1.17;;;19.20;45.90;;;;;;6195383;28;20030;-69
2022/01/21 08:15:18;;;;;;;3.15;1.00;;;19.20;45.90;;;;;;6195510;28;20066;-68
2022/01/21 08:18:19;;;;;;;1.40;0.98;;;19.20;45.90;;;;;;6195588;28;20375;-69
2022/01/21 08:21:20;;;;;;;1.90;1.00;;;19.20;46.00;;;;;;6195269;28;20397;-69
2022/01/21 08:24:21;;;;;;;1.85;1.00;;;19.20;45.90;;;;;;6195498;28;20034;-69
2022/01/21 08:27:22;;;;;;;2.50;1.10;;;19.20;46.00;;;;;;6194891;28;20130;-68
2022/01/21 08:30:23;;;;;;;1.92;0.90;;;19.20;46.00;;;;;;6195304;28;20034;-68
2022/01/21 08:33:24;;;;;;;2.08;0.90;;;19.20;46.00;;;;;;6194887;28;20077;-69
2022/01/21 08:36:26;;;;;;;1.23;0.73;;;19.20;46.00;;;;;;6195592;28;20041;-69
2022/01/21 08:39:26;;;;;;;2.65;1.15;;;19.20;46.00;;;;;;6194492;28;20026;-68
2022/01/21 08:42:27;;;;;;;1.73;1.10;;;19.20;46.00;;;;;;6196030;28;20085;-68
2022/01/21 08:45:29;;;;;;;1.88;0.82;;;19.20;45.90;;;;;;6195336;28;20466;-69
2022/01/21 08:48:30;;;;;;;1.85;1.00;;;19.20;46.00;;;;;;6194979;28;20034;-69
2022/01/21 08:51:39;;;;;;;1.27;0.93;;;19.20;45.90;;;;;;6194745;28;20097;-68
2022/01/21 08:54:39;;;;;;;2.08;1.10;;;19.20;45.90;;;;;;6171191;28;20154;-69
2022/01/21 08:57:43;;;;;;;3.15;1.27;;;19.20;46.00;;;;;;6171456;28;20039;-69
2022/01/21 09:00:44;;;;;;;1.03;0.67;;;19.20;46.00;;;;;;6171075;28;20023;-68
2022/01/21 09:03:44;;;;;;;1.83;1.10;;;19.20;46.00;;;;;;6170828;28;20478;-69
2022/01/21 09:06:46;;;;;;;1.90;1.02;;;19.20;46.00;;;;;;6171930;28;20493;-69
2022/01/21 09:09:47;;;;;;;2.13;1.00;;;19.20;46.00;;;;;;6174402;28;20051;-69
2022/01/21 09:12:47;;;;;;;1.42;0.98;;;19.20;46.00;;;;;;6174889;28;20058;-69
2022/01/21 09:15:48;;;;;;;1.60;0.85;;;19.20;46.00;;;;;;6174943;28;20102;-69
2022/01/21 09:18:50;;;;;;;1.30;0.90;;;19.20;46.00;;;;;;6174959;28;20394;-69
2022/01/21 09:21:51;;;;;;;1.30;0.90;;;19.20;46.00;;;;;;6174784;28;20029;-69
2022/01/21 09:24:52;;;;;;;1.63;0.90;;;19.20;46.00;;;;;;6174414;28;20094;-69
2022/01/21 09:27:53;;;;;;;1.63;1.10;;;19.20;46.00;;;;;;6190299;28;20041;-68
2022/01/21 09:30:54;;;;;;;1.92;0.95;;;19.20;46.10;;;;;;6198465;28;20433;-69
2022/01/21 09:33:54;;;;;;;1.20;0.80;;;19.20;46.10;;;;;;6198173;28;20030;-68
2022/01/21 09:36:59;;;;;;;1.02;0.80;;;19.20;46.10;;;;;;6198832;28;20031;-69
2022/01/21 09:39:59;;;;;;;1.38;0.95;;;19.20;46.10;;;;;;6198563;28;20034;-69
2022/01/21 09:43:00;;;;;;;2.40;0.90;;;19.20;46.10;;;;;;6198579;28;20493;-68
2022/01/21 09:46:05;;;;;;;1.35;0.95;;;19.20;46.20;;;;;;6196766;28;20041;-69
2022/01/21 09:49:19;;;;;;;1.70;0.93;;;19.20;46.10;;;;;;6197914;28;20046;-69
2022/01/21 09:52:21;;;;;;;1.52;1.08;;;19.20;46.10;;;;;;6196629;28;20124;-68
2022/01/21 09:55:22;;;;;;;1.48;1.10;;;19.20;46.10;;;;;;6183468;28;20033;-70
2022/01/21 09:58:25;;;;;;;1.73;1.05;;;19.20;46.10;;;;;;6198831;28;20481;-69
2022/01/21 10:01:26;;;;;;;1.58;1.08;;;19.20;46.10;;;;;;6197938;28;20026;-68
2022/01/21 10:04:35;;;;;;;1.35;0.98;;;19.20;46.10;;;;;;6198098;28;20073;-68
2022/01/21 10:07:39;;;;;;;1.60;1.05;;;19.20;46.20;;;;;;6198051;28;20564;-68
2022/01/21 10:10:43;;;;;;;1.45;1.00;;;19.20;46.20;;;;;;6197094;28;20058;-68
2022/01/21 10:13:45;;;;;;;1.70;0.93;;;19.20;46.20;;;;;;6197761;28;20389;-68
2022/01/21 10:16:46;;;;;;;3.25;1.15;;;19.20;46.20;;;;;;6197628;28;20026;-68
2022/01/21 10:19:48;;;;;;;2.25;1.23;;;19.20;46.20;;;;;;6196566;28;20026;-68
2022/01/21 10:23:00;;;;;;;2.05;1.30;;;19.20;46.20;;;;;;6197946;28;20045;-69
2022/01/21 10:26:08;;;;;;;2.25;1.25;;;19.20;46.20;;;;;;6196921;28;20442;-69
2022/01/21 10:29:09;;;;;;;1.85;1.05;;;19.20;46.20;;;;;;6197410;28;20050;-68
2022/01/21 10:32:09;;;;;;;1.73;1.05;;;19.20;46.20;;;;;;6196433;28;20038;-69
2022/01/21 10:35:24;;;;;;;1.65;0.90;;;19.30;46.30;;;;;;6197583;28;20030;-69
2022/01/21 10:38:30;;;;;;;1.65;1.10;;;19.30;46.30;;;;;;6196825;28;20023;-68
2022/01/21 10:41:33;;;;;;;1.48;1.00;;;19.20;46.30;;;;;;6196983;28;20026;-69
2022/01/21 10:44:34;;;;;;;2.33;1.20;;;19.30;46.30;;;;;;6195239;28;20077;-68
2022/01/21 10:47:49;;;;;;;1.70;1.00;;;19.20;46.30;;;;;;6196995;28;20022;-69
2022/01/21 10:51:08;;;;;;;;;;;19.20;46.30;;;;;;6196949;28;20046;-69
2022/01/21 10:54:26;;;;;;;1.55;1.08;;;19.20;46.30;;;;;;6176625;28;19957;-69
2022/01/21 10:57:29;;;;;;;2.90;1.30;;;19.20;46.30;;;;;;6172388;28;20046;-68
2022/01/21 11:00:29;;;;;;;1.75;0.93;;;19.30;46.40;;;;;;6172646;28;20027;-69
2022/01/21 11:03:30;;;;;;;1.10;1.00;;;19.20;46.30;;;;;;6172185;28;20186;-68
2022/01/21 11:06:40;;;;;;;1.77;1.10;;;19.30;46.40;;;;;;6172441;28;20118;-69
2022/01/21 11:09:40;;;;;;;2.53;1.20;;;19.30;46.40;;;;;;6171908;28;20865;-69
2022/01/21 11:12:41;;;;;;;2.90;1.30;;;19.20;46.30;;;;;;6172296;28;20098;-68
2022/01/21 11:15:45;;;;;;;1.88;1.15;;;19.30;46.40;;;;;;6172488;28;20035;-69
2022/01/21 11:19:10;;;;;;;2.33;1.20;;;19.30;46.40;;;;;;6172250;28;20371;-69
2022/01/21 11:22:11;;;;;;;2.08;1.20;;;19.30;46.40;;;;;;6171904;28;20035;-69
2022/01/21 11:25:11;;;;;;;2.28;1.17;;;19.20;46.40;;;;;;6172363;28;20047;-69
2022/01/21 11:28:20;;;;;;;1.42;0.90;;;19.20;46.40;;;;;;6189909;28;20120;-69
2022/01/21 11:31:23;;;;;;;2.83;1.25;;;19.20;46.40;;;;;;6196018;28;20029;-69
2022/01/21 11:34:24;;;;;;;1.55;1.20;;;19.20;46.40;;;;;;6195288;28;20034;-69
2022/01/21 11:37:25;;;;;;;1.30;0.98;;;19.20;46.40;;;;;;6196427;28;20033;-69
2022/01/21 11:40:26;;;;;;;1.63;1.00;;;19.20;46.40;;;;;;6195889;28;20023;-69
2022/01/21 11:43:30;;;;;;;3.20;1.38;;;19.20;46.40;;;;;;6196017;28;20148;-69
2022/01/21 11:49:35;;;;;;;1.00;0.80;;;19.20;46.40;;;;;;6195799;28;20049;-69
2022/01/21 11:52:44;;;;;;;5.35;1.33;;;19.20;46.40;;;;;;6188230;28;20023;-69
2022/01/21 11:55:45;;;;;;;2.65;1.30;;;19.30;46.50;;;;;;6171960;28;20027;-69
2022/01/21 11:59:05;;;;;;;2.15;1.20;;;19.20;46.40;;;;;;6171707;28;20033;-69
2022/01/21 12:02:29;;;;;;;1.88;1.25;;;19.20;46.40;;;;;;6171332;28;20030;-68
2022/01/21 12:05:30;;;;;;;1.90;1.08;;;19.20;46.40;;;;;;6171645;28;20031;-69
2022/01/21 12:08:45;;;;;;;3.13;1.25;;;19.30;46.60;;;;;;6171840;28;20070;-69
2022/01/21 12:11:56;;;;;;;1.80;1.30;;;19.30;46.60;;;;;;6171009;28;20058;-69
2022/01/21 12:15:02;;;;;;;2.22;1.20;;;19.20;46.50;;;;;;6171562;28;20035;-69
2022/01/21 12:21:45;;;;;;;1.38;1.17;;;19.20;46.50;;;;;;6171512;28;20386;-69
2022/01/21 12:24:52;;;;;;;1.55;1.13;;;19.30;46.60;;;;;;6169331;28;20267;-69
2022/01/21 12:28:17;;;;;;;1.92;1.27;;;19.20;46.50;;;;;;6186825;28;20050;-69
2022/01/21 12:31:19;;;;;;;2.58;1.30;;;19.30;46.60;;;;;;6195259;28;20111;-69
2022/01/21 12:34:19;;;;;;;1.85;1.20;;;19.30;46.60;;;;;;6195153;28;20019;-69
2022/01/21 12:37:24;;;;;;;2.00;1.30;;;19.30;46.70;;;;;;6195178;28;20445;-68
2022/01/21 12:40:37;;;;;;;2.65;1.38;;;19.30;46.60;;;;;;6194965;28;20031;-69
2022/01/21 12:43:47;;;;;;;1.67;1.10;;;19.30;46.60;;;;;;6199676;28;20033;-69
2022/01/21 12:46:52;;;;;;;2.17;1.20;;;19.30;46.70;;;;;;6199836;28;20034;-68
2022/01/21 12:49:55;;;;;;;0.80;0.70;;;19.30;46.70;;;;;;6199318;28;20602;-68
2022/01/21 12:56:04;;;;;;;1.50;0.90;;;19.30;46.70;;;;;;6176415;28;20041;-69
2022/01/21 12:59:06;;;;;;;2.25;1.05;;;19.30;46.70;;;;;;6199324;28;20027;-68
2022/01/21 13:02:06;;;;;;;2.28;1.20;;;19.30;46.70;;;;;;6199273;28;20089;-69
2022/01/21 13:05:20;;;;;;;2.17;1.23;;;19.30;46.80;;;;;;6199673;28;20026;-69
2022/01/21 13:08:30;;;;;;;1.90;1.15;;;19.30;46.70;;;;;;6199014;28;20035;-68
2022/01/21 13:11:32;;;;;;;2.55;1.40;;;19.30;46.80;;;;;;6199023;28;20097;-68
2022/01/21 13:17:33;;;;;;;1.45;1.15;;;19.30;46.80;;;;;;6199150;28;20034;-69
2022/01/21 13:20:37;;;;;;;1.83;0.90;;;19.30;46.80;;;;;;6198869;28;20046;-69
2022/01/21 13:23:47;;;;;;;1.83;1.10;;;19.30;46.80;;;;;;6199098;28;20014;-69
2022/01/21 13:26:51;;;;;;;1.58;1.10;;;19.30;46.80;;;;;;6198798;28;20109;-69
2022/01/21 13:30:02;;;;;;;1.93;1.20;;;19.30;46.80;;;;;;6198241;28;20089;-69
2022/01/21 13:33:09;;;;;;;1.63;1.10;;;19.30;46.80;;;;;;6179237;28;20445;-68
2022/01/21 13:36:11;;;;;;;2.65;1.17;;;19.30;46.80;;;;;;6196167;28;20496;-69
2022/01/21 13:39:22;;;;;;;2.03;1.27;;;19.30;46.80;;;;;;6198798;28;20440;-69
2022/01/21 13:42:25;;;;;;;4.00;1.33;;;19.30;46.80;;;;;;6197372;28;20027;-69
2022/01/21 13:45:25;;;;;;;3.60;1.27;;;19.20;46.80;;;;;;6197254;28;20453;-68
2022/01/21 13:48:31;;;;;;;3.90;1.30;;;19.20;45.70;;;;;;6197314;28;20030;-69
2022/01/21 13:51:32;;;;;;;2.60;1.45;;;19.20;43.60;;;;;;6197148;28;20535;-68
2022/01/21 13:54:41;;;;;;;6.97;1.50;;;19.20;41.20;;;;;;6172776;28;20050;-68
2022/01/21 13:57:44;;;;;;;3.55;1.20;;;19.20;40.20;;;;;;6172669;28;20074;-69
2022/01/21 14:00:49;;;;;;;3.22;1.23;;;19.20;40.20;;;;;;6172956;28;20320;-68
2022/01/21 14:03:49;;;;;;;4.25;1.33;;;19.20;41.30;;;;;;6172680;28;20110;-69
2022/01/21 14:06:50;;;;;;;3.35;1.33;;;19.20;42.00;;;;;;6180057;28;20161;-69
2022/01/21 14:09:50;;;;;;;4.40;1.15;;;19.20;42.60;;;;;;6172257;28;20062;-69
2022/01/21 14:12:52;;;;;;;7.03;1.48;;;19.20;43.00;;;;;;6172417;28;20454;-69
2022/01/21 14:15:58;;;;;;;2.92;1.20;;;19.20;43.60;;;;;;6188449;28;20029;-68
2022/01/21 14:19:00;;;;;;;4.65;1.67;;;19.20;43.90;;;;;;6196155;28;20026;-68
2022/01/21 14:22:04;;;;;;;3.47;1.40;;;19.20;44.30;;;;;;6195902;28;20050;-68
2022/01/21 14:25:09;;;;;;;4.20;1.70;;;19.20;44.50;;;;;;6194107;28;20469;-69
2022/01/21 14:28:10;;;;;;;4.18;1.33;;;19.20;44.60;;;;;;6195816;28;20030;-69
2022/01/21 14:31:29;;;;;;;2.25;1.17;;;19.20;44.80;;;;;;6195778;28;20560;-69
2022/01/21 14:34:30;;;;;;;3.53;1.48;;;19.20;44.90;;;;;;6194369;28;20022;-69
2022/01/21 14:37:36;;;;;;;1.50;1.00;;;19.30;45.20;;;;;;6201910;28;20018;-68
2022/01/21 14:40:49;;;;;;;5.32;1.30;;;19.30;45.30;;;;;;6219461;28;20325;-69
2022/01/21 14:43:55;;;;;;;1.75;1.20;;;19.20;45.30;;;;;;6219424;28;20026;-69
2022/01/21 14:47:07;;;;;;;2.38;1.20;;;19.30;45.40;;;;;;6220615;28;20339;-69
2022/01/21 14:50:13;;;;;;;3.83;1.40;;;19.20;45.40;;;;;;6217346;28;20126;-69
2022/01/21 14:53:14;;;;;;;2.70;1.40;;;19.20;45.50;;;;;;6195517;28;20507;-69
2022/01/21 14:56:24;;;;;;;2.75;1.40;;;19.20;45.50;;;;;;6195601;28;20319;-69
2022/01/21 14:59:25;;;;;;;2.05;1.05;;;19.30;46.10;;;;;;6195280;28;20115;-69
2022/01/21 15:02:35;;;;;;;3.72;1.50;;;19.30;45.80;;;;;;6195147;28;20054;-68
2022/01/21 15:05:38;;;;;;;2.50;1.35;;;19.20;45.80;;;;;;6195291;28;20388;-69
2022/01/21 15:08:42;;;;;;;2.10;1.25;;;19.30;45.80;;;;;;6194596;28;20034;-69
2022/01/21 15:12:10;;;;;;;2.03;1.20;;;19.20;45.80;;;;;;6195138;28;20061;-69
2022/01/21 15:15:10;;;;;;;3.25;1.08;;;19.30;45.90;;;;;;6194971;28;20037;-68
2022/01/21 15:18:16;;;;;;;2.22;1.15;;;19.30;46.00;;;;;;6195005;28;20030;-69
2022/01/21 15:21:28;;;;;;;2.80;1.17;;;19.30;46.00;;;;;;6194451;28;20037;-69
2022/01/21 15:24:29;;;;;;;2.08;0.95;;;19.30;46.00;;;;;;6193898;28;20037;-69
2022/01/21 15:27:29;;;;;;;1.35;0.90;;;19.30;46.10;;;;;;6194350;28;20512;-68
2022/01/21 15:30:30;;;;;;;3.13;1.33;;;19.30;46.10;;;;;;6195057;28;20215;-69
2022/01/21 15:33:31;;;;;;;1.85;1.27;;;19.30;46.20;;;;;;6194123;28;20109;-69
2022/01/21 15:36:32;;;;;;;1.42;0.85;;;19.30;46.10;;;;;;6194611;28;20026;-69
2022/01/21 15:39:34;;;;;;;1.85;1.05;;;19.30;46.20;;;;;;6209380;28;20022;-69
2022/01/21 15:42:35;;;;;;;2.92;1.50;;;19.30;46.20;;;;;;6191194;28;20084;-68
2022/01/21 15:45:35;;;;;;;1.50;1.00;;;19.30;46.30;;;;;;6190899;28;20081;-68
2022/01/21 15:48:36;;;;;;;1.80;1.20;;;19.30;46.30;;;;;;6192849;28;20556;-69
2022/01/21 15:51:37;;;;;;;1.20;0.80;;;19.30;46.30;;;;;;6193168;28;20512;-69
2022/01/21 15:54:39;;;;;;;3.10;0.90;;;19.30;46.30;;;;;;6192684;28;20431;-69
2022/01/21 15:57:39;;;;;;;1.58;1.02;;;19.30;46.30;;;;;;6192781;28;20077;-69
2022/01/21 16:00:40;;;;;;;1.67;1.10;;;19.30;46.30;;;;;;6193118;28;20134;-69
2022/01/21 16:03:42;;;;;;;1.90;1.00;;;19.30;46.30;;;;;;6192394;28;20038;-68
2022/01/21 16:06:44;;;;;;;1.80;0.88;;;19.30;46.30;;;;;;6192739;28;20121;-70
2022/01/21 16:09:44;;;;;;;2.15;1.05;;;19.30;46.40;;;;;;6191899;28;20057;-69
2022/01/21 16:12:45;;;;;;;1.75;0.98;;;19.30;46.40;;;;;;6192430;28;20030;-69
2022/01/21 16:15:46;;;;;;;1.75;0.98;;;19.30;46.40;;;;;;6191483;28;20026;-68
2022/01/21 16:18:46;;;;;;;2.25;1.30;;;19.30;46.40;;;;;;6195448;28;20109;-69
2022/01/21 16:21:49;;;;;;;1.50;1.00;;;19.30;46.50;;;;;;6195551;28;20117;-69
2022/01/21 16:24:49;;;;;;;1.08;0.80;;;19.30;46.50;;;;;;6194538;28;20216;-69
2022/01/21 16:27:50;;;;;;;1.75;1.05;;;19.30;46.50;;;;;;6195814;28;20045;-69
2022/01/21 16:30:54;;;;;;;3.13;1.13;;;19.30;46.50;;;;;;6197376;28;20039;-69
2022/01/21 16:33:54;;;;;;;1.42;0.90;;;19.30;46.50;;;;;;6199409;28;20031;-68
2022/01/21 16:36:55;;;;;;;2.60;0.88;;;19.30;46.50;;;;;;6199822;28;20498;-69
2022/01/21 16:39:58;;;;;;;1.45;0.88;;;19.30;46.50;;;;;;6200629;28;20077;-70
2022/01/21 16:42:58;;;;;;;2.92;1.02;;;19.30;46.50;;;;;;6200332;28;20641;-69
2022/01/21 16:45:59;;;;;;;2.15;1.02;;;19.30;46.60;;;;;;6200634;28;20063;-69
2022/01/21 16:48:59;;;;;;;1.95;0.80;;;19.30;46.60;;;;;;6199466;28;20088;-69